Terminal Aerodrome Forecast
Issued by NWS

Home | Current Version | Previous Version | Text Only | Print | Product List | Glossary On
Versions: 1 2 3 4 5 6 7 8 9 10 11 12 13 14 15 16 17 18 19
000
FTUS46 KSTO 261100
TAFSAC
TAF
KSAC 261139Z 2612/2712 00000KT 2SM BR BCFG SKC
      TEMPO 2614/2617 1SM BR BCFG BKN002
     FM261700 VRB04KT P6SM SCT250
     FM271000 00000KT 2SM BR BCFG SCT002=

USA.gov is the U.S. government's official web portal to all federal, state and local government web resources and services.